< Typhoon 195114 1951 Season Typhoon 195116 >
Typhoon 195115 (RUTH)
General InformationTrack Information on Google Maps || Disaster Info.ResourceGoogle EarthGE AnimationAtom FeedGeoJSON
Detalied Best Track (Time Zone = UTC)
Year Month Day Hour Lat. Long. Pressure (hPa) Wind (kt) Class Image Chart
1951 10 8 00 11.7 144.4 1002 0 2 -- Chart
1951 10 8 06 12.7 143.6 1000 0 2 -- Chart
1951 10 8 12 13.2 142.6 998 0 2 -- Chart
1951 10 8 18 13.5 141.3 996 0 2 -- Chart
1951 10 9 00 14.2 139.8 993 0 9 -- Chart
1951 10 9 06 15.0 138.7 990 0 9 -- Chart
1951 10 9 12 15.7 137.9 988 0 9 -- Chart
1951 10 9 18 16.1 136.8 983 0 9 -- Chart
1951 10 10 00 16.3 135.7 978 0 9 -- Chart
1951 10 10 06 16.5 134.3 971 0 9 -- Chart
1951 10 10 12 17.1 133.5 965 0 9 -- Chart
1951 10 10 18 17.8 132.6 959 0 9 -- Chart
1951 10 11 00 18.2 131.7 953 0 9 -- Chart
1951 10 11 06 18.6 130.2 948 0 9 -- Chart
1951 10 11 12 19.0 129.6 940 0 9 -- Chart
1951 10 11 18 19.3 129.1 933 0 9 -- Chart
1951 10 12 00 19.6 128.5 928 0 9 -- Chart
1951 10 12 06 20.0 127.2 925 0 9 -- Chart
1951 10 12 12 20.6 126.5 924 0 9 -- Chart
1951 10 12 18 21.5 126.0 924 0 9 -- Chart
1951 10 13 00 22.3 126.1 924 0 9 -- Chart
1951 10 13 06 23.5 126.4 925 0 9 -- Chart
1951 10 13 12 24.5 126.3 926 0 9 -- Chart
1951 10 13 18 26.1 126.7 927 0 9 -- Chart
1951 10 14 00 27.9 127.6 929 0 9 -- Chart
1951 10 14 06 30.0 129.2 927 0 9 -- Chart
1951 10 14 12 32.7 130.8 952 0 9 -- Chart
1951 10 14 18 35.5 133.0 969 0 9 -- Chart
1951 10 15 00 37.0 136.5 972 0 9 -- Chart
1951 10 15 06 38.1 139.3 978 0 9 -- Chart
1951 10 15 12 39.0 145.0 978 0 9 -- Chart
1951 10 15 18 41.0 152.0 980 0 9 -- Chart
1951 10 16 00 43.0 158.0 974 0 6 -- Chart
1951 10 16 06 45.0 164.0 970 0 6 -- Chart
1951 10 16 12 46.0 169.0 964 0 6 -- Chart
1951 10 16 18 46.8 170.3 954 0 6 -- Chart
1951 10 17 00 47.6 173.7 950 0 6 -- Chart
1951 10 17 06 48.0 176.0 950 0 6 -- Chart
1951 10 17 12 49.0 178.0 950 0 6 -- Chart
1951 10 17 18 49.9 179.0 950 0 6 -- Chart
1951 10 18 00 50.7 178.6 950 0 6 -- Chart
1951 10 18 06 51.3 177.9 950 0 6 -- Chart
1951 10 18 12 51.7 176.5 950 0 6 -- Chart
1951 10 18 18 52.5 174.5 960 0 6 -- Chart
1951 10 19 00 53.0 171.6 966 0 6 -- Chart
1951 10 19 06 52.7 170.5 966 0 6 -- Chart
1951 10 19 12 52.5 169.2 972 0 6 -- Chart
1951 10 19 18 52.2 168.2 974 0 6 -- Chart
1951 10 20 00 52.0 167.0 978 0 6 -- Chart
1951 10 20 06 52.0 166.0 976 0 6 -- Chart
Japan Meteorological Agency Best Track Data | Correction Date : 1990-10-17
< Typhoon 195114 1951 Season Typhoon 195116 >

Help